Wied, Texas
Current Conditions -  °F | °C
As of 12:55 PM on Friday 24 Oct 2014 (Local Time) from K66R Reporting Station
Clear Clear  
Wind Chill: 26°   Ceiling: Unl
Heat Index: 26°   Visibility: 10mi
Dew Point: 12°   Wind: 3mph
Humidity: 43%   Direction: 60°ENE
Pressure: 30.15"   Gusts: NA
Location:  29.3984°N, 96.8256°W
Report Text: K66R 241755Z AUTO 06003KT 10SM CLR 26/12 A3015 RMK AO2 T02570123 10257 20115
Loading
Personal Weather Stations






























Interactive Weather Map
Tropical Storm Tracking
New forecast layout! Learn more

10-Day Weather Forecast

Advertisements
Track Severe Weather on mobile